sensor_id;sensor_type;location;lat;lon;timestamp;pressure;altitude;pressure_sealevel;temperature;humidity
48527;BME280;34317;51.660;5.824;2022-08-02T00:00:33;101820.88;;;17.98;50.02
48527;BME280;34317;51.660;5.824;2022-08-02T00:03:00;101820.09;;;17.96;49.99
48527;BME280;34317;51.660;5.824;2022-08-02T00:05:28;101817.50;;;17.94;50.08
48527;BME280;34317;51.660;5.824;2022-08-02T00:07:55;101821.94;;;17.95;50.04
48527;BME280;34317;51.660;5.824;2022-08-02T00:10:22;101822.78;;;17.96;50.14
48527;BME280;34317;51.660;5.824;2022-08-02T00:12:49;101818.44;;;17.93;50.28
48527;BME280;34317;51.660;5.824;2022-08-02T00:15:19;101818.44;;;17.93;50.39
48527;BME280;34317;51.660;5.824;2022-08-02T00:17:46;101820.28;;;17.93;50.36
48527;BME280;34317;51.660;5.824;2022-08-02T00:20:14;101823.81;;;17.93;50.56
48527;BME280;34317;51.660;5.824;2022-08-02T00:22:42;101818.44;;;17.93;50.63
48527;BME280;34317;51.660;5.824;2022-08-02T00:25:09;101822.09;;;17.92;50.84
48527;BME280;34317;51.660;5.824;2022-08-02T00:27:36;101828.31;;;17.93;50.76
48527;BME280;34317;51.660;5.824;2022-08-02T00:30:03;101827.47;;;17.92;50.77
48527;BME280;34317;51.660;5.824;2022-08-02T00:32:31;101823.81;;;17.93;51.10
48527;BME280;34317;51.660;5.824;2022-08-02T00:34:58;101827.47;;;17.92;51.01
48527;BME280;34317;51.660;5.824;2022-08-02T00:37:25;101819.50;;;17.90;51.08
48527;BME280;34317;51.660;5.824;2022-08-02T00:39:54;101823.16;;;17.89;51.10
48527;BME280;34317;51.660;5.824;2022-08-02T00:42:23;101818.75;;;17.88;51.19
48527;BME280;34317;51.660;5.824;2022-08-02T00:44:50;101820.56;;;17.88;51.56
48527;BME280;34317;51.660;5.824;2022-08-02T00:47:17;101824.94;;;17.89;51.31
48527;BME280;34317;51.660;5.824;2022-08-02T00:49:46;101820.38;;;17.91;51.04
48527;BME280;34317;51.660;5.824;2022-08-02T00:52:13;101827.47;;;17.92;51.49
48527;BME280;34317;51.660;5.824;2022-08-02T00:54:41;101818.28;;;17.96;51.32
48527;BME280;34317;51.660;5.824;2022-08-02T00:57:08;101811.00;;;17.98;51.33
48527;BME280;34317;51.660;5.824;2022-08-02T00:59:35;101811.00;;;17.98;51.30
48527;BME280;34317;51.660;5.824;2022-08-02T01:02:02;101808.22;;;18.00;51.49
48527;BME280;34317;51.660;5.824;2022-08-02T01:04:30;101805.47;;;18.01;51.24
48527;BME280;34317;51.660;5.824;2022-08-02T01:07:00;101809.09;;;18.00;51.33
48527;BME280;34317;51.660;5.824;2022-08-02T01:09:27;101806.31;;;18.02;51.25
48527;BME280;34317;51.660;5.824;2022-08-02T01:11:54;101800.09;;;18.01;51.07
48527;BME280;34317;51.660;5.824;2022-08-02T01:14:23;101797.41;;;18.01;51.17
48527;BME280;34317;51.660;5.824;2022-08-02T01:17:02;101797.59;;;17.98;51.39
48527;BME280;34317;51.660;5.824;2022-08-02T01:30:49;101797.72;;;17.81;51.20
48527;BME280;34317;51.660;5.824;2022-08-02T01:33:19;101789.78;;;17.79;51.22
48527;BME280;34317;51.660;5.824;2022-08-02T01:35:53;101790.84;;;17.77;51.27
48527;BME280;34317;51.660;5.824;2022-08-02T01:38:24;101783.94;;;17.73;50.74
48527;BME280;34317;51.660;5.824;2022-08-02T01:40:53;101789.31;;;17.73;50.95
48527;BME280;34317;51.660;5.824;2022-08-02T01:43:23;101781.34;;;17.71;51.09
48527;BME280;34317;51.660;5.824;2022-08-02T01:45:53;101780.66;;;17.67;51.12
48527;BME280;34317;51.660;5.824;2022-08-02T01:48:22;101771.88;;;17.65;51.24
48527;BME280;34317;51.660;5.824;2022-08-02T01:50:50;101778.16;;;17.64;51.35
48527;BME280;34317;51.660;5.824;2022-08-02T01:53:19;101779.13;;;17.63;51.26
48527;BME280;34317;51.660;5.824;2022-08-02T01:55:49;101779.13;;;17.63;51.46
48527;BME280;34317;51.660;5.824;2022-08-02T01:58:30;101773.78;;;17.63;51.53
48527;BME280;34317;51.660;5.824;2022-08-02T02:01:00;101770.13;;;17.64;51.42
48527;BME280;34317;51.660;5.824;2022-08-02T02:03:28;101770.13;;;17.64;51.46
48527;BME280;34317;51.660;5.824;2022-08-02T02:06:00;101769.19;;;17.65;51.37
48527;BME280;34317;51.660;5.824;2022-08-02T02:08:32;101770.91;;;17.66;51.50
48527;BME280;34317;51.660;5.824;2022-08-02T02:11:02;101770.13;;;17.64;51.22
48527;BME280;34317;51.660;5.824;2022-08-02T02:13:51;101760.38;;;17.63;51.54
48527;BME280;34317;51.660;5.824;2022-08-02T02:16:20;101758.56;;;17.64;51.39
48527;BME280;34317;51.660;5.824;2022-08-02T02:18:48;101755.97;;;17.62;51.31
48527;BME280;34317;51.660;5.824;2022-08-02T02:21:17;101748.09;;;17.59;51.35
48527;BME280;34317;51.660;5.824;2022-08-02T02:23:44;101745.63;;;17.56;51.50
48527;BME280;34317;51.660;5.824;2022-08-02T02:26:13;101749.44;;;17.52;51.48
48527;BME280;34317;51.660;5.824;2022-08-02T02:28:46;101747.91;;;17.48;51.47
48527;BME280;34317;51.660;5.824;2022-08-02T02:31:15;101746.34;;;17.44;51.66
48527;BME280;34317;51.660;5.824;2022-08-02T02:33:49;101744.63;;;17.43;51.77
48527;BME280;34317;51.660;5.824;2022-08-02T02:36:19;101747.41;;;17.41;51.85
48527;BME280;34317;51.660;5.824;2022-08-02T02:38:49;101741.19;;;17.41;51.90
48527;BME280;34317;51.660;5.824;2022-08-02T02:41:18;101738.53;;;17.41;51.99
48527;BME280;34317;51.660;5.824;2022-08-02T02:43:47;101738.44;;;17.42;51.95
48527;BME280;34317;51.660;5.824;2022-08-02T02:46:16;101731.41;;;17.40;51.61
48527;BME280;34317;51.660;5.824;2022-08-02T02:48:50;101736.00;;;17.38;51.99
48527;BME280;34317;51.660;5.824;2022-08-02T02:51:18;101737.91;;;17.36;52.00
48527;BME280;34317;51.660;5.824;2022-08-02T02:53:49;101730.81;;;17.35;52.29
48527;BME280;34317;51.660;5.824;2022-08-02T02:56:38;101745.09;;;17.35;52.27
48527;BME280;34317;51.660;5.824;2022-08-02T02:59:07;101734.38;;;17.35;52.26
48527;BME280;34317;51.660;5.824;2022-08-02T03:01:35;101736.19;;;17.35;52.24
48527;BME280;34317;51.660;5.824;2022-08-02T03:04:23;101724.63;;;17.34;52.33
48527;BME280;34317;51.660;5.824;2022-08-02T03:06:50;101726.34;;;17.35;52.30
48527;BME280;34317;51.660;5.824;2022-08-02T03:09:18;101726.34;;;17.35;52.37
48527;BME280;34317;51.660;5.824;2022-08-02T03:11:45;101723.75;;;17.34;52.35
48527;BME280;34317;51.660;5.824;2022-08-02T03:14:13;101723.84;;;17.32;52.38
48527;BME280;34317;51.660;5.824;2022-08-02T03:16:45;101723.94;;;17.30;52.44
48527;BME280;34317;51.660;5.824;2022-08-02T03:19:13;101722.22;;;17.29;52.63
48527;BME280;34317;51.660;5.824;2022-08-02T03:21:44;101716.88;;;17.29;52.52
48527;BME280;34317;51.660;5.824;2022-08-02T03:24:12;101717.03;;;17.26;52.55
48527;BME280;34317;51.660;5.824;2022-08-02T03:26:40;101713.50;;;17.26;52.61
48527;BME280;34317;51.660;5.824;2022-08-02T03:29:08;101718.94;;;17.24;52.44
48527;BME280;34317;51.660;5.824;2022-08-02T03:31:39;101715.50;;;17.22;52.70
48527;BME280;34317;51.660;5.824;2022-08-02T03:34:07;101712.06;;;17.20;52.71
48527;BME280;34317;51.660;5.824;2022-08-02T03:36:35;101721.91;;;17.20;52.67
48527;BME280;34317;51.660;5.824;2022-08-02T03:39:03;101721.03;;;17.19;52.73
48527;BME280;34317;51.660;5.824;2022-08-02T03:41:32;101723.78;;;17.18;52.69
48527;BME280;34317;51.660;5.824;2022-08-02T03:44:00;101715.88;;;17.16;52.71
48527;BME280;34317;51.660;5.824;2022-08-02T03:46:29;101716.03;;;17.13;52.65
48527;BME280;34317;51.660;5.824;2022-08-02T03:48:57;101718.72;;;17.13;52.91
48527;BME280;34317;51.660;5.824;2022-08-02T03:51:24;101704.56;;;17.11;52.79
48527;BME280;34317;51.660;5.824;2022-08-02T03:53:52;101705.50;;;17.10;53.01
48527;BME280;34317;51.660;5.824;2022-08-02T03:56:20;101702.06;;;17.08;53.16
48527;BME280;34317;51.660;5.824;2022-08-02T03:58:49;101703.97;;;17.06;53.22
48527;BME280;34317;51.660;5.824;2022-08-02T04:01:16;101712.06;;;17.04;53.09
48527;BME280;34317;51.660;5.824;2022-08-02T04:03:43;101713.13;;;17.02;53.40
48527;BME280;34317;51.660;5.824;2022-08-02T04:06:10;101722.09;;;17.01;53.47
48527;BME280;34317;51.660;5.824;2022-08-02T04:08:37;101719.41;;;17.01;53.58
48527;BME280;34317;51.660;5.824;2022-08-02T04:11:05;101713.13;;;17.02;53.77
48527;BME280;34317;51.660;5.824;2022-08-02T04:13:51;101708.63;;;17.02;53.87
48527;BME280;34317;51.660;5.824;2022-08-02T04:16:30;101721.06;;;17.03;53.79
48527;BME280;34317;51.660;5.824;2022-08-02T04:19:02;101707.63;;;17.05;54.00
48527;BME280;34317;51.660;5.824;2022-08-02T04:21:36;101705.72;;;17.07;54.05
48527;BME280;34317;51.660;5.824;2022-08-02T04:24:25;101708.09;;;17.11;54.14
48527;BME280;34317;51.660;5.824;2022-08-02T04:26:54;101712.44;;;17.14;53.79
48527;BME280;34317;51.660;5.824;2022-08-02T04:29:28;101719.13;;;17.21;53.87
48527;BME280;34317;51.660;5.824;2022-08-02T04:31:56;101709.97;;;17.25;53.92
48527;BME280;34317;51.660;5.824;2022-08-02T04:34:23;101713.22;;;17.30;54.17
48527;BME280;34317;51.660;5.824;2022-08-02T04:36:50;101714.75;;;17.35;54.17
48527;BME280;34317;51.660;5.824;2022-08-02T04:39:18;101711.91;;;17.38;54.15
48527;BME280;34317;51.660;5.824;2022-08-02T04:41:45;101712.69;;;17.40;54.18
48527;BME280;34317;51.660;5.824;2022-08-02T04:44:13;101725.13;;;17.41;54.23
48527;BME280;34317;51.660;5.824;2022-08-02T04:46:42;101717.84;;;17.43;54.40
48527;BME280;34317;51.660;5.824;2022-08-02T04:49:09;101719.56;;;17.44;53.98
48527;BME280;34317;51.660;5.824;2022-08-02T04:51:39;101726.66;;;17.45;54.34
48527;BME280;34317;51.660;5.824;2022-08-02T04:54:08;101726.50;;;17.48;54.43
48527;BME280;34317;51.660;5.824;2022-08-02T04:56:37;101713.75;;;17.51;54.40
48527;BME280;34317;51.660;5.824;2022-08-02T04:59:05;101722.47;;;17.55;54.31
48527;BME280;34317;51.660;5.824;2022-08-02T05:01:32;101711.56;;;17.58;54.44
48527;BME280;34317;51.660;5.824;2022-08-02T05:04:01;101714.06;;;17.61;54.36
48527;BME280;34317;51.660;5.824;2022-08-02T05:06:28;101707.56;;;17.65;54.42
48527;BME280;34317;51.660;5.824;2022-08-02T05:08:55;101708.13;;;17.70;54.54
48527;BME280;34317;51.660;5.824;2022-08-02T05:11:23;101712.38;;;17.75;54.50
48527;BME280;34317;51.660;5.824;2022-08-02T05:14:04;101705.94;;;17.77;54.52
48527;BME280;34317;51.660;5.824;2022-08-02T05:16:31;101709.22;;;17.82;54.55
48527;BME280;34317;51.660;5.824;2022-08-02T05:18:59;101705.31;;;17.88;54.75
48527;BME280;34317;51.660;5.824;2022-08-02T05:21:28;101705.88;;;17.93;54.66
48527;BME280;34317;51.660;5.824;2022-08-02T05:23:55;101704.44;;;18.02;54.60
48527;BME280;34317;51.660;5.824;2022-08-02T05:26:22;101701.50;;;18.06;54.69
48527;BME280;34317;51.660;5.824;2022-08-02T05:28:49;101696.69;;;18.12;54.66
48527;BME280;34317;51.660;5.824;2022-08-02T05:31:16;101694.59;;;18.17;54.76
48527;BME280;34317;51.660;5.824;2022-08-02T05:33:43;101690.75;;;18.21;54.77
48527;BME280;34317;51.660;5.824;2022-08-02T05:36:11;101685.97;;;18.26;54.49
48527;BME280;34317;51.660;5.824;2022-08-02T05:38:38;101685.78;;;18.29;54.93
48527;BME280;34317;51.660;5.824;2022-08-02T05:41:05;101689.00;;;18.34;54.63
48527;BME280;34317;51.660;5.824;2022-08-02T05:43:32;101690.63;;;18.37;54.83
48527;BME280;34317;51.660;5.824;2022-08-02T05:45:59;101694.84;;;18.41;54.55
48527;BME280;34317;51.660;5.824;2022-08-02T05:48:26;101688.22;;;18.46;54.70
48527;BME280;34317;51.660;5.824;2022-08-02T05:51:11;101689.72;;;18.51;54.77
48527;BME280;34317;51.660;5.824;2022-08-02T05:53:50;101694.69;;;18.57;54.90
48527;BME280;34317;51.660;5.824;2022-08-02T05:59:18;101686.59;;;18.71;54.86
48527;BME280;34317;51.660;5.824;2022-08-02T06:01:52;101678.06;;;18.79;54.91
48527;BME280;34317;51.660;5.824;2022-08-02T06:04:26;101689.06;;;18.89;54.85
48527;BME280;34317;51.660;5.824;2022-08-02T06:06:59;101686.53;;;19.00;55.11
48527;BME280;34317;51.660;5.824;2022-08-02T06:09:28;101685.91;;;19.09;55.25
48527;BME280;34317;51.660;5.824;2022-08-02T06:11:57;101694.09;;;19.20;55.18
48527;BME280;34317;51.660;5.824;2022-08-02T06:14:32;101695.16;;;19.31;55.31
48527;BME280;34317;51.660;5.824;2022-08-02T06:17:03;101697.97;;;19.42;55.24
48527;BME280;34317;51.660;5.824;2022-08-02T06:19:31;101703.47;;;19.53;55.27
48527;BME280;34317;51.660;5.824;2022-08-02T06:22:19;101698.84;;;19.68;55.26
48527;BME280;34317;51.660;5.824;2022-08-02T06:25:02;101700.63;;;19.82;54.97
48527;BME280;34317;51.660;5.824;2022-08-02T06:27:30;101698.03;;;19.93;55.37
48527;BME280;34317;51.660;5.824;2022-08-02T06:29:58;101693.50;;;20.07;55.59
48527;BME280;34317;51.660;5.824;2022-08-02T06:32:26;101691.66;;;20.20;55.49
48527;BME280;34317;51.660;5.824;2022-08-02T06:34:54;101686.13;;;20.34;55.44
48527;BME280;34317;51.660;5.824;2022-08-02T06:40:25;101679.03;;;20.70;55.50
48527;BME280;34317;51.660;5.824;2022-08-02T06:43:12;101670.56;;;20.88;55.22
48527;BME280;34317;51.660;5.824;2022-08-02T06:45:43;101668.16;;;21.07;55.05
48527;BME280;34317;51.660;5.824;2022-08-02T06:48:10;101666.03;;;21.24;55.28
48527;BME280;34317;51.660;5.824;2022-08-02T06:50:38;101669.00;;;21.43;55.03
48527;BME280;34317;51.660;5.824;2022-08-02T06:53:06;101669.31;;;21.63;55.07
48527;BME280;34317;51.660;5.824;2022-08-02T06:55:33;101667.84;;;21.81;54.99
48527;BME280;34317;51.660;5.824;2022-08-02T06:58:11;101672.50;;;22.02;54.87
48527;BME280;34317;51.660;5.824;2022-08-02T07:00:40;101670.28;;;22.18;54.50
48527;BME280;34317;51.660;5.824;2022-08-02T07:03:08;101667.09;;;22.35;54.59
48527;BME280;34317;51.660;5.824;2022-08-02T07:05:35;101664.72;;;22.53;54.35
48527;BME280;34317;51.660;5.824;2022-08-02T07:08:03;101667.47;;;22.74;54.39
48527;BME280;34317;51.660;5.824;2022-08-02T07:10:30;101673.78;;;22.96;54.26
48527;BME280;34317;51.660;5.824;2022-08-02T07:12:59;101670.00;;;23.20;54.13
48527;BME280;34317;51.660;5.824;2022-08-02T07:15:26;101669.16;;;23.40;53.75
48527;BME280;34317;51.660;5.824;2022-08-02T07:17:53;101663.59;;;23.63;53.46
48527;BME280;34317;51.660;5.824;2022-08-02T07:20:20;101667.44;;;23.81;53.15
48527;BME280;34317;51.660;5.824;2022-08-02T07:22:47;101674.63;;;24.02;52.78
48527;BME280;34317;51.660;5.824;2022-08-02T07:25:15;101669.28;;;24.21;52.36
48527;BME280;34317;51.660;5.824;2022-08-02T07:27:42;101672.19;;;24.39;52.55
48527;BME280;34317;51.660;5.824;2022-08-02T07:30:09;101672.81;;;24.62;52.05
48527;BME280;34317;51.660;5.824;2022-08-02T07:32:37;101665.41;;;24.84;51.76
48527;BME280;34317;51.660;5.824;2022-08-02T07:35:05;101670.84;;;25.03;51.43
48527;BME280;34317;51.660;5.824;2022-08-02T07:37:35;101665.66;;;25.20;51.13
48527;BME280;34317;51.660;5.824;2022-08-02T07:40:24;101663.25;;;25.36;50.50
48527;BME280;34317;51.660;5.824;2022-08-02T07:42:53;101663.06;;;25.48;50.07
48527;BME280;34317;51.660;5.824;2022-08-02T07:45:28;101663.88;;;25.58;50.01
48527;BME280;34317;51.660;5.824;2022-08-02T07:47:56;101659.31;;;25.68;49.88
48527;BME280;34317;51.660;5.824;2022-08-02T07:50:23;101650.97;;;25.79;49.86
48527;BME280;34317;51.660;5.824;2022-08-02T07:52:50;101651.53;;;25.93;49.37
48527;BME280;34317;51.660;5.824;2022-08-02T07:55:24;101655.44;;;26.08;49.53
48527;BME280;34317;51.660;5.824;2022-08-02T07:58:10;101646.47;;;26.26;49.12
48527;BME280;34317;51.660;5.824;2022-08-02T08:00:42;101650.69;;;26.38;48.62
48527;BME280;34317;51.660;5.824;2022-08-02T08:03:10;101651.47;;;26.48;48.23
48527;BME280;34317;51.660;5.824;2022-08-02T08:05:37;101646.84;;;26.58;48.04
48527;BME280;34317;51.660;5.824;2022-08-02T08:08:04;101647.97;;;26.66;47.86
48527;BME280;34317;51.660;5.824;2022-08-02T08:10:32;101647.03;;;26.75;47.72
48527;BME280;34317;51.660;5.824;2022-08-02T08:12:59;101648.34;;;26.89;47.70
48527;BME280;34317;51.660;5.824;2022-08-02T08:15:26;101646.59;;;27.06;47.31
48527;BME280;34317;51.660;5.824;2022-08-02T08:17:53;101638.88;;;27.19;46.83
48527;BME280;34317;51.660;5.824;2022-08-02T08:20:20;101639.16;;;27.26;46.84
48527;BME280;34317;51.660;5.824;2022-08-02T08:22:48;101644.78;;;27.32;46.77
48527;BME280;34317;51.660;5.824;2022-08-02T08:25:15;101640.97;;;27.43;46.04
48527;BME280;34317;51.660;5.824;2022-08-02T08:27:50;101638.28;;;27.51;45.95
48527;BME280;34317;51.660;5.824;2022-08-02T08:30:20;101633.59;;;27.62;45.81
48527;BME280;34317;51.660;5.824;2022-08-02T08:32:48;101640.59;;;27.72;45.63
48527;BME280;34317;51.660;5.824;2022-08-02T08:35:15;101640.16;;;27.85;45.18
48527;BME280;34317;51.660;5.824;2022-08-02T08:37:42;101632.56;;;27.97;44.99
48527;BME280;34317;51.660;5.824;2022-08-02T08:40:10;101631.59;;;28.06;44.48
48527;BME280;34317;51.660;5.824;2022-08-02T08:42:38;101630.94;;;28.12;44.35
48527;BME280;34317;51.660;5.824;2022-08-02T08:45:06;101635.72;;;28.19;44.03
48527;BME280;34317;51.660;5.824;2022-08-02T08:47:36;101632.66;;;28.22;43.60
48527;BME280;34317;51.660;5.824;2022-08-02T08:50:06;101627.03;;;28.23;43.33
48527;BME280;34317;51.660;5.824;2022-08-02T08:52:42;101633.00;;;28.27;43.13
48527;BME280;34317;51.660;5.824;2022-08-02T08:55:13;101628.94;;;28.31;43.24
48527;BME280;34317;51.660;5.824;2022-08-02T08:57:42;101631.16;;;28.35;43.05
48527;BME280;34317;51.660;5.824;2022-08-02T09:00:11;101633.38;;;28.40;43.20
48527;BME280;34317;51.660;5.824;2022-08-02T09:02:43;101632.38;;;28.49;42.96
48527;BME280;34317;51.660;5.824;2022-08-02T09:05:13;101633.44;;;28.57;43.36
48527;BME280;34317;51.660;5.824;2022-08-02T09:07:40;101638.22;;;28.63;43.20
48527;BME280;34317;51.660;5.824;2022-08-02T09:10:39;101633.81;;;28.70;42.96
48527;BME280;34317;51.660;5.824;2022-08-02T09:16:06;101631.06;;;28.78;42.73
48527;BME280;34317;51.660;5.824;2022-08-02T09:18:41;101633.13;;;28.84;42.53
48527;BME280;34317;51.660;5.824;2022-08-02T09:21:14;101629.72;;;28.90;42.78
48527;BME280;34317;51.660;5.824;2022-08-02T09:23:47;101634.84;;;28.93;42.68
48527;BME280;34317;51.660;5.824;2022-08-02T09:26:16;101639.94;;;28.97;42.46
48527;BME280;34317;51.660;5.824;2022-08-02T09:28:46;101634.16;;;29.00;42.44
48527;BME280;34317;51.660;5.824;2022-08-02T09:31:22;101630.91;;;29.04;42.77
48527;BME280;34317;51.660;5.824;2022-08-02T09:33:57;101635.69;;;29.10;42.84
48527;BME280;34317;51.660;5.824;2022-08-02T09:36:26;101631.97;;;29.20;42.91
48527;BME280;34317;51.660;5.824;2022-08-02T09:39:02;101635.69;;;29.27;42.51
48527;BME280;34317;51.660;5.824;2022-08-02T09:41:32;101638.56;;;29.34;42.25
48527;BME280;34317;51.660;5.824;2022-08-02T09:44:01;101628.34;;;29.36;42.09
48527;BME280;34317;51.660;5.824;2022-08-02T09:49:14;101621.34;;;29.41;41.59
48527;BME280;34317;51.660;5.824;2022-08-02T09:54:24;101625.41;;;29.45;41.56
48527;BME280;34317;51.660;5.824;2022-08-02T09:56:54;101622.84;;;29.52;41.89
48527;BME280;34317;51.660;5.824;2022-08-02T09:59:23;101622.47;;;29.63;41.90
48527;BME280;34317;51.660;5.824;2022-08-02T10:01:52;101626.69;;;29.74;41.62
48527;BME280;34317;51.660;5.824;2022-08-02T10:04:39;101622.75;;;29.85;41.11
48527;BME280;34317;51.660;5.824;2022-08-02T10:07:21;101620.69;;;29.87;40.90
48527;BME280;34317;51.660;5.824;2022-08-02T10:09:50;101615.91;;;29.89;40.89
48527;BME280;34317;51.660;5.824;2022-08-02T10:12:18;101627.50;;;29.91;40.49
48527;BME280;34317;51.660;5.824;2022-08-02T10:14:48;101622.03;;;29.91;40.79
48527;BME280;34317;51.660;5.824;2022-08-02T10:17:18;101621.69;;;29.94;40.78
48527;BME280;34317;51.660;5.824;2022-08-02T10:19:45;101618.91;;;30.02;40.74
48527;BME280;34317;51.660;5.824;2022-08-02T10:22:32;101613.03;;;30.14;40.58
48527;BME280;34317;51.660;5.824;2022-08-02T10:25:02;101617.81;;;30.20;40.02
48527;BME280;34317;51.660;5.824;2022-08-02T10:27:30;101614.34;;;30.26;39.96
48527;BME280;34317;51.660;5.824;2022-08-02T10:30:14;101611.94;;;30.31;39.46
48527;BME280;34317;51.660;5.824;2022-08-02T10:32:43;101613.28;;;30.35;39.69
48527;BME280;34317;51.660;5.824;2022-08-02T10:35:14;101615.97;;;30.43;39.48
48527;BME280;34317;51.660;5.824;2022-08-02T10:37:58;101610.91;;;30.55;39.05
48527;BME280;34317;51.660;5.824;2022-08-02T10:40:44;101612.38;;;30.66;38.98
48527;BME280;34317;51.660;5.824;2022-08-02T10:43:12;101603.44;;;30.72;37.98
48527;BME280;34317;51.660;5.824;2022-08-02T10:45:40;101603.06;;;30.75;37.74
48527;BME280;34317;51.660;5.824;2022-08-02T10:48:09;101607.53;;;30.76;37.56
48527;BME280;34317;51.660;5.824;2022-08-02T10:53:26;101607.44;;;30.84;36.69
48527;BME280;34317;51.660;5.824;2022-08-02T10:55:55;101614.63;;;30.85;36.05
48527;BME280;34317;51.660;5.824;2022-08-02T10:58:26;101613.06;;;30.91;35.81
48527;BME280;34317;51.660;5.824;2022-08-02T11:01:03;101608.94;;;30.95;35.60
48527;BME280;34317;51.660;5.824;2022-08-02T11:06:07;101601.47;;;31.04;34.62
48527;BME280;34317;51.660;5.824;2022-08-02T11:09:29;101599.41;;;31.06;34.77
48527;BME280;34317;51.660;5.824;2022-08-02T11:12:00;101602.44;;;31.11;34.83
48527;BME280;34317;51.660;5.824;2022-08-02T11:14:28;101604.63;;;31.16;34.51
48527;BME280;34317;51.660;5.824;2022-08-02T11:19:24;101594.25;;;31.26;33.42
48527;BME280;34317;51.660;5.824;2022-08-02T11:22:02;101594.72;;;31.30;33.47
48527;BME280;34317;51.660;5.824;2022-08-02T11:24:35;101602.34;;;31.34;33.41
48527;BME280;34317;51.660;5.824;2022-08-02T11:27:04;101586.41;;;31.38;32.85
48527;BME280;34317;51.660;5.824;2022-08-02T11:29:35;101580.56;;;31.41;32.51
48527;BME280;34317;51.660;5.824;2022-08-02T11:32:16;101581.88;;;31.45;32.69
48527;BME280;34317;51.660;5.824;2022-08-02T11:34:49;101590.03;;;31.53;32.56
48527;BME280;34317;51.660;5.824;2022-08-02T11:37:28;101591.16;;;31.59;32.39
48527;BME280;34317;51.660;5.824;2022-08-02T11:39:56;101589.34;;;31.66;32.45
48527;BME280;34317;51.660;5.824;2022-08-02T11:42:33;101599.56;;;31.72;31.53
48527;BME280;34317;51.660;5.824;2022-08-02T11:45:01;101590.28;;;31.73;31.51
48527;BME280;34317;51.660;5.824;2022-08-02T11:47:29;101600.00;;;31.76;31.98
48527;BME280;34317;51.660;5.824;2022-08-02T11:50:07;101600.47;;;31.79;31.55
48527;BME280;34317;51.660;5.824;2022-08-02T11:52:35;101599.63;;;31.79;30.88
48527;BME280;34317;51.660;5.824;2022-08-02T11:55:07;101587.66;;;31.80;31.23
48527;BME280;34317;51.660;5.824;2022-08-02T11:57:34;101591.03;;;31.82;31.03
48527;BME280;34317;51.660;5.824;2022-08-02T12:00:21;101588.31;;;31.82;31.14
48527;BME280;34317;51.660;5.824;2022-08-02T12:02:56;101583.94;;;31.88;31.16
48527;BME280;34317;51.660;5.824;2022-08-02T12:05:23;101590.94;;;31.90;31.03
48527;BME280;34317;51.660;5.824;2022-08-02T12:08:12;101586.50;;;31.89;31.22
48527;BME280;34317;51.660;5.824;2022-08-02T12:10:46;101571.75;;;31.90;31.40
48527;BME280;34317;51.660;5.824;2022-08-02T12:13:14;101579.97;;;31.90;32.27
48527;BME280;34317;51.660;5.824;2022-08-02T12:15:43;101584.66;;;31.96;31.77
48527;BME280;34317;51.660;5.824;2022-08-02T12:18:14;101579.84;;;31.98;30.95
48527;BME280;34317;51.660;5.824;2022-08-02T12:21:00;101575.41;;;31.97;30.53
48527;BME280;34317;51.660;5.824;2022-08-02T12:23:28;101582.97;;;31.95;31.08
48527;BME280;34317;51.660;5.824;2022-08-02T12:28:33;101581.69;;;31.91;30.38
48527;BME280;34317;51.660;5.824;2022-08-02T12:31:01;101569.00;;;31.90;31.04
48527;BME280;34317;51.660;5.824;2022-08-02T12:33:44;101564.19;;;31.92;30.79
48527;BME280;34317;51.660;5.824;2022-08-02T12:36:16;101558.50;;;31.94;30.80
48527;BME280;34317;51.660;5.824;2022-08-02T12:38:51;101565.03;;;31.93;29.92
48527;BME280;34317;51.660;5.824;2022-08-02T12:41:18;101573.19;;;31.86;30.34
48527;BME280;34317;51.660;5.824;2022-08-02T12:43:58;101576.09;;;31.85;30.25
48527;BME280;34317;51.660;5.824;2022-08-02T12:46:25;101571.47;;;31.85;29.61
48527;BME280;34317;51.660;5.824;2022-08-02T12:48:52;101567.69;;;31.86;29.84
48527;BME280;34317;51.660;5.824;2022-08-02T12:51:39;101571.94;;;31.89;29.77
48527;BME280;34317;51.660;5.824;2022-08-02T12:54:38;101558.03;;;31.90;30.05
48527;BME280;34317;51.660;5.824;2022-08-02T12:57:12;101563.16;;;31.93;29.50
48527;BME280;34317;51.660;5.824;2022-08-02T12:59:40;101562.09;;;31.94;31.14
48527;BME280;34317;51.660;5.824;2022-08-02T13:02:10;101562.03;;;32.03;30.16
48527;BME280;34317;51.660;5.824;2022-08-02T13:04:39;101559.53;;;32.08;29.70
48527;BME280;34317;51.660;5.824;2022-08-02T13:07:07;101554.97;;;32.15;29.54
48527;BME280;34317;51.660;5.824;2022-08-02T13:09:36;101555.91;;;32.22;29.82
48527;BME280;34317;51.660;5.824;2022-08-02T13:12:04;101549.63;;;32.28;29.33
48527;BME280;34317;51.660;5.824;2022-08-02T13:14:33;101553.66;;;32.32;29.37
48527;BME280;34317;51.660;5.824;2022-08-02T13:17:08;101550.53;;;32.35;29.38
48527;BME280;34317;51.660;5.824;2022-08-02T13:19:36;101551.47;;;32.43;29.56
48527;BME280;34317;51.660;5.824;2022-08-02T13:22:05;101544.78;;;32.52;29.47
48527;BME280;34317;51.660;5.824;2022-08-02T13:24:37;101532.66;;;32.61;29.24
48527;BME280;34317;51.660;5.824;2022-08-02T13:27:24;101541.59;;;32.70;29.57
48527;BME280;34317;51.660;5.824;2022-08-02T13:29:53;101527.28;;;32.74;29.29
48527;BME280;34317;51.660;5.824;2022-08-02T13:32:21;101539.56;;;32.78;29.55
48527;BME280;34317;51.660;5.824;2022-08-02T13:34:49;101528.19;;;32.82;29.65
48527;BME280;34317;51.660;5.824;2022-08-02T13:37:16;101532.88;;;32.88;29.72
48527;BME280;34317;51.660;5.824;2022-08-02T13:39:43;101530.38;;;32.93;29.75
48527;BME280;34317;51.660;5.824;2022-08-02T13:42:30;101522.81;;;33.02;29.42
48527;BME280;34317;51.660;5.824;2022-08-02T13:44:58;101515.28;;;33.10;29.64